sensor_id;sensor_type;location;lat;lon;timestamp;pressure;altitude;pressure_sealevel;temperature;humidity
55540;BME280;41384;51.418;7.286;2023-05-16T00:02:22;99847.78;;;13.30;100.00
55540;BME280;41384;51.418;7.286;2023-05-16T00:04:48;99847.84;;;13.23;100.00
55540;BME280;41384;51.418;7.286;2023-05-16T00:07:13;99849.16;;;13.32;100.00
55540;BME280;41384;51.418;7.286;2023-05-16T00:09:38;99851.41;;;13.17;100.00
55540;BME280;41384;51.418;7.286;2023-05-16T00:12:04;99856.69;;;13.17;100.00
55540;BME280;41384;51.418;7.286;2023-05-16T00:14:29;99857.22;;;13.25;100.00
55540;BME280;41384;51.418;7.286;2023-05-16T00:16:55;99863.56;;;12.62;100.00
55540;BME280;41384;51.418;7.286;2023-05-16T00:19:23;99861.47;;;12.89;100.00
55540;BME280;41384;51.418;7.286;2023-05-16T00:21:48;99861.28;;;13.09;100.00
55540;BME280;41384;51.418;7.286;2023-05-16T00:24:14;99864.78;;;13.22;100.00
55540;BME280;41384;51.418;7.286;2023-05-16T00:26:39;99873.19;;;13.00;100.00
55540;BME280;41384;51.418;7.286;2023-05-16T00:29:05;99872.81;;;12.96;100.00
55540;BME280;41384;51.418;7.286;2023-05-16T00:31:31;99876.19;;;13.04;100.00
55540;BME280;41384;51.418;7.286;2023-05-16T00:33:56;99876.19;;;12.85;100.00
55540;BME280;41384;51.418;7.286;2023-05-16T00:36:21;99873.34;;;13.05;100.00
55540;BME280;41384;51.418;7.286;2023-05-16T00:38:47;99881.16;;;13.00;100.00
55540;BME280;41384;51.418;7.286;2023-05-16T00:41:12;99867.75;;;13.13;100.00
55540;BME280;41384;51.418;7.286;2023-05-16T00:43:37;99874.22;;;12.99;99.21
55540;BME280;41384;51.418;7.286;2023-05-16T00:46:03;99883.94;;;12.87;100.00
55540;BME280;41384;51.418;7.286;2023-05-16T00:48:29;99881.00;;;12.95;100.00
55540;BME280;41384;51.418;7.286;2023-05-16T00:50:54;99886.69;;;12.73;100.00
55540;BME280;41384;51.418;7.286;2023-05-16T00:53:20;99881.19;;;12.75;100.00
55540;BME280;41384;51.418;7.286;2023-05-16T00:55:46;99880.06;;;12.64;100.00
55540;BME280;41384;51.418;7.286;2023-05-16T00:58:11;99877.06;;;12.79;100.00
55540;BME280;41384;51.418;7.286;2023-05-16T01:00:37;99881.19;;;12.75;100.00
55540;BME280;41384;51.418;7.286;2023-05-16T01:03:04;99881.91;;;12.63;100.00
55540;BME280;41384;51.418;7.286;2023-05-16T01:05:29;99886.94;;;12.90;100.00
55540;BME280;41384;51.418;7.286;2023-05-16T01:07:55;99874.31;;;12.67;100.00
55540;BME280;41384;51.418;7.286;2023-05-16T01:10:20;99880.56;;;12.29;100.00
55540;BME280;41384;51.418;7.286;2023-05-16T01:13:10;99890.03;;;12.43;100.00
55540;BME280;41384;51.418;7.286;2023-05-16T01:15:43;99891.16;;;12.29;100.00
55540;BME280;41384;51.418;7.286;2023-05-16T01:18:20;99884.78;;;12.36;100.00
55540;BME280;41384;51.418;7.286;2023-05-16T01:21:08;99884.84;;;12.55;100.00
55540;BME280;41384;51.418;7.286;2023-05-16T01:26:30;99892.00;;;12.73;100.00
55540;BME280;41384;51.418;7.286;2023-05-16T01:28:56;99890.16;;;12.74;100.00
55540;BME280;41384;51.418;7.286;2023-05-16T01:31:22;99893.16;;;12.77;100.00
55540;BME280;41384;51.418;7.286;2023-05-16T01:33:48;99895.22;;;12.75;100.00
55540;BME280;41384;51.418;7.286;2023-05-16T01:39:19;99893.97;;;12.34;100.00
55540;BME280;41384;51.418;7.286;2023-05-16T01:41:56;99892.72;;;12.62;100.00
55540;BME280;41384;51.418;7.286;2023-05-16T01:44:38;99899.41;;;12.64;100.00
55540;BME280;41384;51.418;7.286;2023-05-16T01:47:10;99911.63;;;12.40;100.00
55540;BME280;41384;51.418;7.286;2023-05-16T01:49:52;99908.09;;;12.21;100.00
55540;BME280;41384;51.418;7.286;2023-05-16T01:52:27;99914.38;;;12.26;100.00
55540;BME280;41384;51.418;7.286;2023-05-16T01:54:57;99915.09;;;12.08;100.00
55540;BME280;41384;51.418;7.286;2023-05-16T01:57:25;99939.47;;;11.78;100.00
55540;BME280;41384;51.418;7.286;2023-05-16T01:59:51;99930.09;;;11.76;99.80
55540;BME280;41384;51.418;7.286;2023-05-16T02:02:17;99935.16;;;11.38;100.00
55540;BME280;41384;51.418;7.286;2023-05-16T02:04:43;99941.22;;;11.52;100.00
55540;BME280;41384;51.418;7.286;2023-05-16T02:07:08;99944.66;;;11.53;97.93
55540;BME280;41384;51.418;7.286;2023-05-16T02:09:34;99944.88;;;11.51;96.11
55540;BME280;41384;51.418;7.286;2023-05-16T02:11:59;99948.66;;;11.62;99.64
55540;BME280;41384;51.418;7.286;2023-05-16T02:14:24;99948.16;;;11.33;99.09
55540;BME280;41384;51.418;7.286;2023-05-16T02:16:50;99949.09;;;11.59;96.85
55540;BME280;41384;51.418;7.286;2023-05-16T02:19:15;99956.47;;;11.50;97.49
55540;BME280;41384;51.418;7.286;2023-05-16T02:21:40;99950.19;;;11.38;100.00
55540;BME280;41384;51.418;7.286;2023-05-16T02:24:06;99966.88;;;11.84;97.46
55540;BME280;41384;51.418;7.286;2023-05-16T02:26:31;99960.03;;;11.70;97.13
55540;BME280;41384;51.418;7.286;2023-05-16T02:28:56;99960.75;;;11.45;98.68
55540;BME280;41384;51.418;7.286;2023-05-16T02:31:29;99955.44;;;11.45;95.81
55540;BME280;41384;51.418;7.286;2023-05-16T02:33:56;99967.44;;;11.47;96.38
55540;BME280;41384;51.418;7.286;2023-05-16T02:36:22;99969.69;;;11.50;96.92
55540;BME280;41384;51.418;7.286;2023-05-16T02:38:48;99973.34;;;11.43;96.49
55540;BME280;41384;51.418;7.286;2023-05-16T02:41:13;99973.56;;;11.34;99.41
55540;BME280;41384;51.418;7.286;2023-05-16T02:43:38;99973.34;;;11.36;96.69
55540;BME280;41384;51.418;7.286;2023-05-16T02:46:04;99979.25;;;11.38;96.74
55540;BME280;41384;51.418;7.286;2023-05-16T02:48:30;99982.34;;;11.28;95.91
55540;BME280;41384;51.418;7.286;2023-05-16T02:50:55;99991.28;;;11.27;97.50
55540;BME280;41384;51.418;7.286;2023-05-16T02:53:21;99995.47;;;11.48;97.64
55540;BME280;41384;51.418;7.286;2023-05-16T02:55:46;99999.59;;;11.37;96.95
55540;BME280;41384;51.418;7.286;2023-05-16T02:58:12;100000.22;;;11.26;98.89
55540;BME280;41384;51.418;7.286;2023-05-16T03:00:37;100003.59;;;11.67;96.21
55540;BME280;41384;51.418;7.286;2023-05-16T03:03:02;100006.47;;;11.52;95.63
55540;BME280;41384;51.418;7.286;2023-05-16T03:05:28;100003.84;;;11.38;96.82
55540;BME280;41384;51.418;7.286;2023-05-16T03:07:53;100002.22;;;11.31;95.22
55540;BME280;41384;51.418;7.286;2023-05-16T03:10:19;99999.38;;;11.46;95.98
55540;BME280;41384;51.418;7.286;2023-05-16T03:12:44;100006.13;;;11.28;96.95
55540;BME280;41384;51.418;7.286;2023-05-16T03:15:10;100010.72;;;11.53;96.12
55540;BME280;41384;51.418;7.286;2023-05-16T03:17:35;100011.94;;;11.57;95.76
55540;BME280;41384;51.418;7.286;2023-05-16T03:20:01;100019.50;;;11.53;95.66
55540;BME280;41384;51.418;7.286;2023-05-16T03:22:26;100024.16;;;11.51;94.51
55540;BME280;41384;51.418;7.286;2023-05-16T03:24:51;100020.06;;;11.69;94.50
55540;BME280;41384;51.418;7.286;2023-05-16T03:27:16;100017.19;;;11.71;94.30
55540;BME280;41384;51.418;7.286;2023-05-16T03:29:42;100027.16;;;11.68;94.42
55540;BME280;41384;51.418;7.286;2023-05-16T03:32:07;100024.56;;;11.48;98.67
55540;BME280;41384;51.418;7.286;2023-05-16T03:34:33;100029.88;;;11.42;94.74
55540;BME280;41384;51.418;7.286;2023-05-16T03:36:58;100020.47;;;11.59;94.21
55540;BME280;41384;51.418;7.286;2023-05-16T03:39:24;100032.09;;;11.38;97.38
55540;BME280;41384;51.418;7.286;2023-05-16T03:41:49;100029.47;;;11.31;97.96
55540;BME280;41384;51.418;7.286;2023-05-16T03:44:16;100028.84;;;11.43;98.24
55540;BME280;41384;51.418;7.286;2023-05-16T03:46:41;100026.78;;;11.65;95.69
55540;BME280;41384;51.418;7.286;2023-05-16T03:49:06;100037.78;;;11.55;95.98
55540;BME280;41384;51.418;7.286;2023-05-16T03:51:31;100043.50;;;11.38;97.91
55540;BME280;41384;51.418;7.286;2023-05-16T03:53:57;100042.66;;;11.45;95.52
55540;BME280;41384;51.418;7.286;2023-05-16T03:56:22;100041.28;;;11.15;98.69
55540;BME280;41384;51.418;7.286;2023-05-16T03:58:47;100054.06;;;11.38;94.24
55540;BME280;41384;51.418;7.286;2023-05-16T04:01:13;100053.84;;;11.40;93.51
55540;BME280;41384;51.418;7.286;2023-05-16T04:03:38;100055.47;;;11.41;93.67
55540;BME280;41384;51.418;7.286;2023-05-16T04:06:04;100054.69;;;11.00;93.22
55540;BME280;41384;51.418;7.286;2023-05-16T04:08:29;100063.41;;;10.74;92.92
55540;BME280;41384;51.418;7.286;2023-05-16T04:10:55;100065.19;;;10.53;92.88
55540;BME280;41384;51.418;7.286;2023-05-16T04:13:21;100070.31;;;10.82;91.78
55540;BME280;41384;51.418;7.286;2023-05-16T04:15:46;100079.03;;;10.75;91.44
55540;BME280;41384;51.418;7.286;2023-05-16T04:18:11;100073.19;;;11.07;91.45
55540;BME280;41384;51.418;7.286;2023-05-16T04:20:37;100085.97;;;10.90;91.03
55540;BME280;41384;51.418;7.286;2023-05-16T04:23:02;100085.56;;;10.93;91.86
55540;BME280;41384;51.418;7.286;2023-05-16T04:25:27;100088.44;;;11.18;90.41
55540;BME280;41384;51.418;7.286;2023-05-16T04:27:52;100089.66;;;11.29;87.23
55540;BME280;41384;51.418;7.286;2023-05-16T04:30:18;100094.13;;;11.15;88.23
55540;BME280;41384;51.418;7.286;2023-05-16T04:32:43;100099.00;;;11.32;87.02
55540;BME280;41384;51.418;7.286;2023-05-16T04:35:09;100092.50;;;11.21;89.43
55540;BME280;41384;51.418;7.286;2023-05-16T04:37:34;100114.03;;;11.18;88.76
55540;BME280;41384;51.418;7.286;2023-05-16T04:40:00;100116.25;;;10.94;87.16
55540;BME280;41384;51.418;7.286;2023-05-16T04:42:25;100113.19;;;10.97;88.99
55540;BME280;41384;51.418;7.286;2023-05-16T04:44:51;100118.22;;;10.65;89.10
55540;BME280;41384;51.418;7.286;2023-05-16T04:47:16;100115.41;;;10.80;87.69
55540;BME280;41384;51.418;7.286;2023-05-16T04:49:42;100125.44;;;10.43;89.38
55540;BME280;41384;51.418;7.286;2023-05-16T04:52:07;100130.00;;;10.62;88.72
55540;BME280;41384;51.418;7.286;2023-05-16T04:54:33;100135.50;;;10.74;88.76
55540;BME280;41384;51.418;7.286;2023-05-16T04:56:58;100128.84;;;10.92;89.28
55540;BME280;41384;51.418;7.286;2023-05-16T04:59:23;100129.50;;;11.07;87.68
55540;BME280;41384;51.418;7.286;2023-05-16T05:01:49;100136.59;;;11.07;85.53
55540;BME280;41384;51.418;7.286;2023-05-16T05:04:14;100143.84;;;10.85;88.01
55540;BME280;41384;51.418;7.286;2023-05-16T05:06:41;100131.63;;;10.70;88.88
55540;BME280;41384;51.418;7.286;2023-05-16T05:09:07;100142.47;;;10.95;88.90
55540;BME280;41384;51.418;7.286;2023-05-16T05:11:33;100133.09;;;10.93;86.32
55540;BME280;41384;51.418;7.286;2023-05-16T05:13:58;100146.69;;;10.90;87.28
55540;BME280;41384;51.418;7.286;2023-05-16T05:16:23;100146.50;;;10.98;85.53
55540;BME280;41384;51.418;7.286;2023-05-16T05:18:49;100155.06;;;10.93;89.26
55540;BME280;41384;51.418;7.286;2023-05-16T05:21:14;100165.22;;;10.97;88.97
55540;BME280;41384;51.418;7.286;2023-05-16T05:23:40;100160.50;;;10.78;89.42
55540;BME280;41384;51.418;7.286;2023-05-16T05:26:05;100162.75;;;10.88;89.67
55540;BME280;41384;51.418;7.286;2023-05-16T05:28:30;100164.06;;;11.26;86.54
55540;BME280;41384;51.418;7.286;2023-05-16T05:30:55;100168.69;;;11.17;87.26
55540;BME280;41384;51.418;7.286;2023-05-16T05:33:25;100167.25;;;10.94;86.76
55540;BME280;41384;51.418;7.286;2023-05-16T05:35:52;100182.13;;;11.16;85.27
55540;BME280;41384;51.418;7.286;2023-05-16T05:38:18;100174.59;;;11.06;86.06
55540;BME280;41384;51.418;7.286;2023-05-16T05:40:43;100181.22;;;10.75;87.29
55540;BME280;41384;51.418;7.286;2023-05-16T05:43:09;100186.41;;;11.17;86.93
55540;BME280;41384;51.418;7.286;2023-05-16T05:45:34;100186.34;;;11.03;88.34
55540;BME280;41384;51.418;7.286;2023-05-16T05:47:59;100184.34;;;11.12;85.82
55540;BME280;41384;51.418;7.286;2023-05-16T05:50:25;100190.88;;;11.23;86.71
55540;BME280;41384;51.418;7.286;2023-05-16T05:52:50;100185.97;;;11.06;85.03
55540;BME280;41384;51.418;7.286;2023-05-16T05:55:16;100197.97;;;11.16;83.52
55540;BME280;41384;51.418;7.286;2023-05-16T05:57:41;100190.28;;;11.34;85.34
55540;BME280;41384;51.418;7.286;2023-05-16T06:00:06;100195.56;;;11.34;83.89
55540;BME280;41384;51.418;7.286;2023-05-16T06:02:32;100194.75;;;11.41;84.81
55540;BME280;41384;51.418;7.286;2023-05-16T06:04:57;100200.03;;;11.41;83.18
55540;BME280;41384;51.418;7.286;2023-05-16T06:07:22;100197.78;;;11.24;82.31
55540;BME280;41384;51.418;7.286;2023-05-16T06:09:48;100204.28;;;11.21;81.39
55540;BME280;41384;51.418;7.286;2023-05-16T06:12:13;100213.22;;;11.14;81.89
55540;BME280;41384;51.418;7.286;2023-05-16T06:14:39;100212.41;;;11.06;80.69
55540;BME280;41384;51.418;7.286;2023-05-16T06:17:04;100205.41;;;10.92;82.46
55540;BME280;41384;51.418;7.286;2023-05-16T06:19:29;100205.44;;;10.99;83.24
55540;BME280;41384;51.418;7.286;2023-05-16T06:21:55;100224.97;;;11.11;80.80
55540;BME280;41384;51.418;7.286;2023-05-16T06:24:20;100218.09;;;11.17;83.21
55540;BME280;41384;51.418;7.286;2023-05-16T06:26:45;100214.84;;;11.35;82.86
55540;BME280;41384;51.418;7.286;2023-05-16T06:29:14;100217.69;;;11.27;81.14
55540;BME280;41384;51.418;7.286;2023-05-16T06:31:39;100216.91;;;11.26;82.07
55540;BME280;41384;51.418;7.286;2023-05-16T06:34:05;100222.59;;;11.43;80.28
55540;BME280;41384;51.418;7.286;2023-05-16T06:36:30;100224.16;;;11.04;79.15
55540;BME280;41384;51.418;7.286;2023-05-16T06:38:56;100229.91;;;11.21;80.32
55540;BME280;41384;51.418;7.286;2023-05-16T06:41:21;100234.34;;;11.14;80.98
55540;BME280;41384;51.418;7.286;2023-05-16T06:43:46;100230.28;;;11.18;83.06
55540;BME280;41384;51.418;7.286;2023-05-16T06:46:12;100223.59;;;11.29;81.15
55540;BME280;41384;51.418;7.286;2023-05-16T06:48:37;100218.16;;;11.57;79.62
55540;BME280;41384;51.418;7.286;2023-05-16T06:51:02;100219.78;;;11.78;79.36
55540;BME280;41384;51.418;7.286;2023-05-16T06:53:28;100214.28;;;11.93;79.12
55540;BME280;41384;51.418;7.286;2023-05-16T06:55:53;100215.91;;;11.81;77.25
55540;BME280;41384;51.418;7.286;2023-05-16T06:58:19;100214.28;;;11.73;76.02
55540;BME280;41384;51.418;7.286;2023-05-16T07:00:44;100221.59;;;11.64;75.06
55540;BME280;41384;51.418;7.286;2023-05-16T07:03:09;100227.09;;;11.70;74.94
55540;BME280;41384;51.418;7.286;2023-05-16T07:05:35;100226.69;;;11.59;74.46
55540;BME280;41384;51.418;7.286;2023-05-16T07:08:00;100229.13;;;11.41;74.30
55540;BME280;41384;51.418;7.286;2023-05-16T07:10:25;100228.09;;;11.42;73.06
55540;BME280;41384;51.418;7.286;2023-05-16T07:12:51;100238.28;;;11.45;72.08
55540;BME280;41384;51.418;7.286;2023-05-16T07:15:16;100232.75;;;11.46;71.52
55540;BME280;41384;51.418;7.286;2023-05-16T07:17:42;100229.09;;;11.47;71.66
55540;BME280;41384;51.418;7.286;2023-05-16T07:20:07;100236.66;;;11.50;70.67
55540;BME280;41384;51.418;7.286;2023-05-16T07:22:37;100229.13;;;11.61;71.89
55540;BME280;41384;51.418;7.286;2023-05-16T07:25:03;100234.19;;;11.49;74.07
55540;BME280;41384;51.418;7.286;2023-05-16T07:27:28;100236.66;;;11.64;70.47
55540;BME280;41384;51.418;7.286;2023-05-16T07:29:54;100233.63;;;11.80;71.83
55540;BME280;41384;51.418;7.286;2023-05-16T07:32:20;100236.44;;;11.92;71.78
55540;BME280;41384;51.418;7.286;2023-05-16T07:34:45;100232.41;;;11.96;72.46
55540;BME280;41384;51.418;7.286;2023-05-16T07:37:10;100231.31;;;12.31;72.43
55540;BME280;41384;51.418;7.286;2023-05-16T07:39:40;100239.88;;;12.47;71.07
55540;BME280;41384;51.418;7.286;2023-05-16T07:42:06;100235.97;;;12.49;70.52
55540;BME280;41384;51.418;7.286;2023-05-16T07:44:31;100228.69;;;12.31;69.12
55540;BME280;41384;51.418;7.286;2023-05-16T07:46:56;100231.13;;;12.26;66.49
55540;BME280;41384;51.418;7.286;2023-05-16T07:49:22;100225.88;;;11.99;65.36
55540;BME280;41384;51.418;7.286;2023-05-16T07:51:47;100240.31;;;12.17;66.34
55540;BME280;41384;51.418;7.286;2023-05-16T07:54:12;100249.50;;;12.01;64.82
55540;BME280;41384;51.418;7.286;2023-05-16T07:56:37;100252.94;;;11.88;65.07
55540;BME280;41384;51.418;7.286;2023-05-16T07:59:03;100249.88;;;11.91;65.58
55540;BME280;41384;51.418;7.286;2023-05-16T08:01:30;100254.19;;;12.12;65.88
55540;BME280;41384;51.418;7.286;2023-05-16T08:03:55;100249.06;;;12.31;65.85
55540;BME280;41384;51.418;7.286;2023-05-16T08:06:20;100244.16;;;12.41;65.98
55540;BME280;41384;51.418;7.286;2023-05-16T08:08:45;100245.91;;;12.61;64.93
55540;BME280;41384;51.418;7.286;2023-05-16T08:11:11;100245.13;;;12.53;64.36
55540;BME280;41384;51.418;7.286;2023-05-16T08:13:36;100241.38;;;12.81;65.19
55540;BME280;41384;51.418;7.286;2023-05-16T08:16:01;100247.63;;;12.94;63.94
55540;BME280;41384;51.418;7.286;2023-05-16T08:18:27;100242.00;;;12.70;61.66
55540;BME280;41384;51.418;7.286;2023-05-16T08:20:52;100244.66;;;12.70;63.96
55540;BME280;41384;51.418;7.286;2023-05-16T08:23:17;100255.94;;;12.52;63.02
55540;BME280;41384;51.418;7.286;2023-05-16T08:25:42;100251.84;;;12.49;63.21
55540;BME280;41384;51.418;7.286;2023-05-16T08:28:08;100248.13;;;12.70;63.71
55540;BME280;41384;51.418;7.286;2023-05-16T08:30:33;100246.63;;;12.95;63.13
55540;BME280;41384;51.418;7.286;2023-05-16T08:32:59;100247.38;;;13.02;61.78
55540;BME280;41384;51.418;7.286;2023-05-16T08:35:28;100247.75;;;13.06;60.40
55540;BME280;41384;51.418;7.286;2023-05-16T08:37:54;100253.78;;;12.88;60.42
55540;BME280;41384;51.418;7.286;2023-05-16T08:40:21;100250.19;;;12.68;56.81
55540;BME280;41384;51.418;7.286;2023-05-16T08:42:50;100251.63;;;12.64;56.03
55540;BME280;41384;51.418;7.286;2023-05-16T08:45:15;100260.66;;;12.95;56.67
55540;BME280;41384;51.418;7.286;2023-05-16T08:47:41;100260.41;;;13.04;55.35
55540;BME280;41384;51.418;7.286;2023-05-16T08:50:09;100249.09;;;13.28;55.60
55540;BME280;41384;51.418;7.286;2023-05-16T08:52:36;100243.50;;;13.43;55.04
55540;BME280;41384;51.418;7.286;2023-05-16T08:55:03;100242.03;;;13.48;55.25
55540;BME280;41384;51.418;7.286;2023-05-16T08:57:35;100242.22;;;13.53;57.24
55540;BME280;41384;51.418;7.286;2023-05-16T09:00:01;100246.00;;;13.32;55.30
55540;BME280;41384;51.418;7.286;2023-05-16T09:02:31;100248.38;;;12.55;54.21
55540;BME280;41384;51.418;7.286;2023-05-16T09:04:57;100256.38;;;12.94;53.34
55540;BME280;41384;51.418;7.286;2023-05-16T09:07:23;100252.47;;;13.04;54.21
55540;BME280;41384;51.418;7.286;2023-05-16T09:09:49;100258.56;;;13.50;54.05
55540;BME280;41384;51.418;7.286;2023-05-16T09:12:14;100247.50;;;13.85;53.69
55540;BME280;41384;51.418;7.286;2023-05-16T09:14:40;100252.47;;;13.75;52.94
55540;BME280;41384;51.418;7.286;2023-05-16T09:17:07;100246.81;;;13.90;54.61
55540;BME280;41384;51.418;7.286;2023-05-16T09:19:40;100246.94;;;14.01;53.43
55540;BME280;41384;51.418;7.286;2023-05-16T09:22:13;100265.19;;;13.66;53.49
55540;BME280;41384;51.418;7.286;2023-05-16T09:24:40;100254.25;;;13.55;53.77
55540;BME280;41384;51.418;7.286;2023-05-16T09:29:34;100251.25;;;13.45;55.27
55540;BME280;41384;51.418;7.286;2023-05-16T09:32:14;100254.28;;;13.49;54.09
55540;BME280;41384;51.418;7.286;2023-05-16T09:34:43;100246.56;;;13.40;54.83
55540;BME280;41384;51.418;7.286;2023-05-16T09:37:10;100250.75;;;13.55;53.79
55540;BME280;41384;51.418;7.286;2023-05-16T09:39:39;100253.56;;;13.60;51.81
55540;BME280;41384;51.418;7.286;2023-05-16T09:42:10;100249.72;;;13.88;53.31
55540;BME280;41384;51.418;7.286;2023-05-16T09:44:36;100251.09;;;13.33;50.00
55540;BME280;41384;51.418;7.286;2023-05-16T09:47:02;100252.28;;;13.37;51.96
55540;BME280;41384;51.418;7.286;2023-05-16T09:49:27;100255.44;;;13.60;51.54
55540;BME280;41384;51.418;7.286;2023-05-16T09:51:52;100253.03;;;13.51;52.20
55540;BME280;41384;51.418;7.286;2023-05-16T09:54:29;100246.63;;;13.91;51.72
55540;BME280;41384;51.418;7.286;2023-05-16T09:56:54;100242.97;;;14.29;52.11
55540;BME280;41384;51.418;7.286;2023-05-16T09:59:20;100242.84;;;14.62;51.29
55540;BME280;41384;51.418;7.286;2023-05-16T10:01:46;100241.06;;;14.93;51.21
55540;BME280;41384;51.418;7.286;2023-05-16T10:04:12;100238.53;;;15.28;50.98
55540;BME280;41384;51.418;7.286;2023-05-16T10:06:40;100237.59;;;14.92;50.12
55540;BME280;41384;51.418;7.286;2023-05-16T10:09:10;100237.69;;;14.85;49.37
55540;BME280;41384;51.418;7.286;2023-05-16T10:11:37;100237.91;;;14.84;51.00
55540;BME280;41384;51.418;7.286;2023-05-16T10:14:04;100238.94;;;14.83;49.05
55540;BME280;41384;51.418;7.286;2023-05-16T10:16:31;100231.69;;;15.21;48.01
55540;BME280;41384;51.418;7.286;2023-05-16T10:18:57;100243.81;;;15.16;48.48
55540;BME280;41384;51.418;7.286;2023-05-16T10:21:24;100242.19;;;14.85;47.77
55540;BME280;41384;51.418;7.286;2023-05-16T10:23:53;100240.41;;;14.79;49.63
55540;BME280;41384;51.418;7.286;2023-05-16T10:26:21;100238.59;;;15.10;49.56
55540;BME280;41384;51.418;7.286;2023-05-16T10:28:47;100236.94;;;15.27;49.21
55540;BME280;41384;51.418;7.286;2023-05-16T10:31:13;100236.22;;;15.01;47.01
55540;BME280;41384;51.418;7.286;2023-05-16T10:33:39;100240.03;;;14.94;48.38
55540;BME280;41384;51.418;7.286;2023-05-16T10:36:06;100238.28;;;14.87;48.43
55540;BME280;41384;51.418;7.286;2023-05-16T10:38:32;100233.34;;;14.72;48.17
55540;BME280;41384;51.418;7.286;2023-05-16T10:40:58;100231.34;;;14.86;47.40
55540;BME280;41384;51.418;7.286;2023-05-16T10:43:28;100232.84;;;14.94;45.61
55540;BME280;41384;51.418;7.286;2023-05-16T10:46:01;100232.97;;;15.30;46.94
55540;BME280;41384;51.418;7.286;2023-05-16T10:48:34;100241.22;;;15.40;47.12
55540;BME280;41384;51.418;7.286;2023-05-16T10:51:01;100240.69;;;15.08;48.04
55540;BME280;41384;51.418;7.286;2023-05-16T11:01:28;100242.91;;;14.55;49.14
55540;BME280;41384;51.418;7.286;2023-05-16T11:06:23;100241.44;;;14.40;48.48
55540;BME280;41384;51.418;7.286;2023-05-16T11:11:57;100251.84;;;14.42;51.57
55540;BME280;41384;51.418;7.286;2023-05-16T11:16:56;100252.16;;;15.20;51.08
55540;BME280;41384;51.418;7.286;2023-05-16T11:19:33;100242.75;;;15.48;49.39
55540;BME280;41384;51.418;7.286;2023-05-16T11:22:06;100242.91;;;15.77;50.12
55540;BME280;41384;51.418;7.286;2023-05-16T11:24:31;100243.69;;;15.66;48.63
55540;BME280;41384;51.418;7.286;2023-05-16T11:26:58;100246.09;;;15.43;48.61
55540;BME280;41384;51.418;7.286;2023-05-16T11:29:26;100248.28;;;15.35;48.39
55540;BME280;41384;51.418;7.286;2023-05-16T11:31:52;100233.47;;;15.39;49.81
55540;BME280;41384;51.418;7.286;2023-05-16T11:34:18;100244.41;;;15.18;48.96
55540;BME280;41384;51.418;7.286;2023-05-16T11:36:43;100241.94;;;15.05;50.42
55540;BME280;41384;51.418;7.286;2023-05-16T11:39:08;100228.06;;;15.03;49.47
55540;BME280;41384;51.418;7.286;2023-05-16T11:41:34;100240.06;;;15.36;50.82
55540;BME280;41384;51.418;7.286;2023-05-16T11:44:00;100238.41;;;15.89;49.51
55540;BME280;41384;51.418;7.286;2023-05-16T11:46:25;100235.03;;;15.58;47.89
55540;BME280;41384;51.418;7.286;2023-05-16T11:48:51;100235.44;;;15.43;49.03
55540;BME280;41384;51.418;7.286;2023-05-16T11:51:18;100237.50;;;14.99;49.69
55540;BME280;41384;51.418;7.286;2023-05-16T11:53:46;100243.50;;;14.94;50.91
55540;BME280;41384;51.418;7.286;2023-05-16T11:56:12;100245.38;;;14.75;52.05
55540;BME280;41384;51.418;7.286;2023-05-16T11:58:37;100246.31;;;14.62;54.57
55540;BME280;41384;51.418;7.286;2023-05-16T12:01:03;100254.28;;;14.43;55.59
55540;BME280;41384;51.418;7.286;2023-05-16T12:03:29;100253.69;;;14.41;58.09
55540;BME280;41384;51.418;7.286;2023-05-16T12:05:57;100252.56;;;14.12;63.73
55540;BME280;41384;51.418;7.286;2023-05-16T12:08:23;100251.09;;;14.16;65.35
55540;BME280;41384;51.418;7.286;2023-05-16T12:10:50;100254.38;;;14.11;64.86
55540;BME280;41384;51.418;7.286;2023-05-16T12:13:20;100247.72;;;14.46;63.44
55540;BME280;41384;51.418;7.286;2023-05-16T12:15:47;100244.38;;;14.69;62.76
55540;BME280;41384;51.418;7.286;2023-05-16T12:18:13;100237.56;;;15.11;62.97
55540;BME280;41384;51.418;7.286;2023-05-16T12:20:38;100236.88;;;15.15;57.80
55540;BME280;41384;51.418;7.286;2023-05-16T12:23:04;100226.78;;;15.48;59.84
55540;BME280;41384;51.418;7.286;2023-05-16T12:25:34;100227.28;;;15.81;60.18
55540;BME280;41384;51.418;7.286;2023-05-16T12:28:02;100218.44;;;15.99;58.45
55540;BME280;41384;51.418;7.286;2023-05-16T12:30:30;100221.38;;;16.26;55.72
55540;BME280;41384;51.418;7.286;2023-05-16T12:33:02;100218.66;;;16.62;54.99
55540;BME280;41384;51.418;7.286;2023-05-16T12:35:33;100218.72;;;16.38;55.22
55540;BME280;41384;51.418;7.286;2023-05-16T12:38:05;100218.50;;;16.16;51.45
55540;BME280;41384;51.418;7.286;2023-05-16T12:40:32;100223.44;;;15.41;52.01
55540;BME280;41384;51.418;7.286;2023-05-16T12:42:57;100223.84;;;15.26;53.71
55540;BME280;41384;51.418;7.286;2023-05-16T12:45:24;100229.16;;;15.26;53.77
55540;BME280;41384;51.418;7.286;2023-05-16T12:47:51;100236.41;;;15.73;52.98
55540;BME280;41384;51.418;7.286;2023-05-16T12:50:16;100236.38;;;15.92;52.70
55540;BME280;41384;51.418;7.286;2023-05-16T12:52:51;100229.66;;;16.01;53.53
55540;BME280;41384;51.418;7.286;2023-05-16T12:55:18;100236.06;;;15.81;53.67
55540;BME280;41384;51.418;7.286;2023-05-16T12:57:44;100229.50;;;16.31;52.77
55540;BME280;41384;51.418;7.286;2023-05-16T13:00:11;100228.56;;;16.78;52.41
55540;BME280;41384;51.418;7.286;2023-05-16T13:02:38;100227.22;;;17.05;52.18
55540;BME280;41384;51.418;7.286;2023-05-16T13:05:04;100229.00;;;17.16;49.83
55540;BME280;41384;51.418;7.286;2023-05-16T13:07:31;100219.19;;;17.34;48.23
55540;BME280;41384;51.418;7.286;2023-05-16T13:09:56;100218.38;;;17.33;47.66
55540;BME280;41384;51.418;7.286;2023-05-16T13:12:22;100223.56;;;16.82;46.01